createdAt,value
2022-12-15T00:00:34.315Z,12.18
2022-12-15T00:10:37.913Z,8.98
2022-12-15T00:20:39.829Z,8.48
2022-12-15T00:30:43.095Z,11.88
2022-12-15T00:40:45.432Z,14.00
2022-12-15T00:50:48.695Z,9.73
2022-12-15T01:00:50.631Z,16.40
2022-12-15T01:10:53.865Z,15.18
2022-12-15T01:20:56.556Z,10.43
2022-12-15T01:30:59.949Z,11.00
2022-12-15T01:41:05.099Z,9.50
2022-12-15T01:51:25.214Z,14.80
2022-12-15T02:01:27.244Z,19.77
2022-12-15T02:12:00.812Z,11.63
2022-12-15T02:22:17.955Z,12.15
2022-12-15T02:32:25.473Z,13.90
2022-12-15T02:42:30.468Z,16.38
2022-12-15T02:52:47.500Z,10.63
2022-12-15T03:02:52.812Z,12.00
2022-12-15T03:12:56.236Z,10.32
2022-12-15T03:22:58.156Z,17.00
2022-12-15T03:33:01.450Z,11.82
2022-12-15T03:43:03.371Z,8.82
2022-12-15T03:53:06.674Z,13.60
2022-12-15T04:03:10.668Z,12.43
2022-12-15T04:13:14.069Z,10.38
2022-12-15T04:23:16.004Z,11.85
2022-12-15T04:33:19.839Z,8.55
2022-12-15T04:43:21.788Z,19.20
2022-12-15T04:53:25.043Z,7.82
2022-12-15T05:03:26.963Z,15.85
2022-12-15T05:13:30.647Z,12.57
2022-12-15T05:23:33.095Z,11.07
2022-12-15T05:33:36.683Z,12.82
2022-12-15T05:43:38.591Z,12.40
2022-12-15T05:53:42.783Z,10.50
2022-12-15T06:03:45.255Z,17.83
2022-12-15T06:13:49.199Z,12.27
2022-12-15T06:23:51.652Z,9.07
2022-12-15T06:34:01.421Z,17.08
2022-12-15T06:44:04.946Z,13.60
2022-12-15T06:54:09.160Z,10.45
2022-12-15T07:04:11.195Z,12.80
2022-12-15T07:14:14.743Z,16.88
2022-12-15T07:24:16.647Z,13.95
2022-12-15T07:34:20.164Z,14.38
2022-12-15T07:44:22.059Z,18.33
2022-12-15T07:54:25.384Z,18.60
2022-12-15T08:04:27.343Z,12.98
2022-12-15T08:14:30.637Z,11.15
2022-12-15T08:24:32.552Z,19.88
2022-12-15T08:34:35.881Z,11.13
2022-12-15T08:44:37.777Z,12.52
2022-12-15T08:54:41.044Z,14.02
2022-12-15T09:04:43.058Z,16.92
2022-12-15T09:14:47.158Z,12.20
2022-12-15T09:24:49.083Z,15.40
2022-12-15T09:34:52.860Z,15.95
2022-12-15T09:45:01.552Z,15.70
2022-12-15T09:55:17.940Z,18.42
2022-12-15T10:05:57.357Z,14.20
2022-12-15T10:16:00.657Z,18.15
2022-12-15T10:26:19.813Z,40.60
2022-12-15T10:36:23.212Z,22.70
2022-12-15T10:46:27.564Z,19.70
2022-12-15T10:56:33.951Z,15.48
2022-12-15T11:06:41.424Z,13.68
2022-12-15T11:16:48.931Z,13.32
2022-12-15T11:26:56.382Z,18.40
2022-12-15T11:37:34.493Z,22.00
2022-12-15T11:47:44.310Z,18.65
2022-12-15T11:58:17.418Z,22.13
2022-12-15T12:08:41.583Z,16.67
2022-12-15T12:18:51.150Z,17.65
2022-12-15T12:28:59.990Z,25.67
2022-12-15T12:39:03.915Z,27.27
2022-12-15T12:49:12.705Z,20.48
2022-12-15T12:59:38.457Z,22.35
2022-12-15T13:09:41.682Z,20.70
2022-12-15T13:20:20.670Z,15.80
2022-12-15T13:30:22.583Z,25.33
2022-12-15T13:40:51.390Z,14.05
2022-12-15T13:51:01.522Z,14.38
2022-12-15T14:01:20.035Z,21.40
2022-12-15T14:11:51.382Z,25.38
2022-12-15T14:21:52.462Z,24.05
2022-12-15T14:31:56.179Z,18.17
2022-12-15T14:41:59.823Z,16.92
2022-12-15T14:52:05.876Z,14.25
2022-12-15T15:02:17.434Z,22.40
2022-12-15T15:12:21.453Z,11.32
2022-12-15T15:22:37.274Z,10.25
2022-12-15T15:32:49.847Z,9.90
2022-12-15T15:42:53.337Z,16.25
2022-12-15T15:52:55.720Z,10.45
2022-12-15T16:02:59.133Z,10.15
2022-12-15T16:13:01.385Z,13.80
2022-12-15T16:23:11.150Z,11.30
2022-12-15T16:33:13.095Z,12.87
2022-12-15T16:43:20.315Z,17.88
2022-12-15T16:53:25.597Z,13.52
2022-12-15T17:03:29.129Z,15.10
2022-12-15T17:13:40.635Z,21.13
2022-12-15T17:23:51.340Z,31.40
2022-12-15T17:33:53.364Z,32.75
2022-12-15T17:44:24.097Z,32.30
2022-12-15T17:54:19.964Z,31.75
2022-12-15T18:04:23.442Z,22.05
2022-12-15T18:14:27.386Z,22.75
2022-12-15T18:24:30.740Z,21.40
2022-12-15T18:34:32.665Z,17.27
2022-12-15T18:44:35.955Z,28.05
2022-12-15T18:54:37.856Z,29.10
2022-12-15T19:04:41.340Z,47.58
2022-12-15T19:14:43.440Z,24.27
2022-12-15T19:24:46.789Z,22.60
2022-12-15T19:34:49.294Z,30.75
2022-12-15T19:44:52.656Z,25.75
2022-12-15T19:54:54.646Z,23.17
2022-12-15T20:04:57.923Z,22.23
2022-12-15T20:14:59.884Z,17.55
2022-12-15T20:25:03.336Z,19.58
2022-12-15T20:35:05.858Z,24.20
2022-12-15T20:45:12.714Z,26.48
2022-12-15T20:55:14.983Z,16.13
2022-12-15T21:05:21.158Z,17.00
2022-12-15T21:15:23.762Z,17.50
2022-12-15T21:25:27.104Z,17.05
2022-12-15T21:35:31.872Z,34.35
2022-12-15T21:45:35.380Z,29.63
2022-12-15T21:55:37.285Z,23.98
2022-12-15T22:05:40.603Z,22.85
2022-12-15T22:15:42.640Z,19.55
2022-12-15T22:25:47.357Z,29.42
2022-12-15T22:35:50.525Z,23.45
2022-12-15T22:45:55.378Z,24.80
2022-12-15T22:55:58.034Z,22.70
2022-12-15T23:06:03.098Z,17.25
2022-12-15T23:16:06.002Z,18.73
2022-12-15T23:26:09.443Z,17.42
2022-12-15T23:36:12.074Z,18.65
2022-12-15T23:46:15.458Z,18.10
2022-12-15T23:56:19.111Z,20.65
